Terminal Aerodrome Forecast
Issued by NWS

Home | Current Version | Previous Version | Text Only | Print | Product List | Glossary On
Versions: 1 2 3 4 5 6 7 8 9 10 11 12 13 14 15
000
FTUS45 KFGZ 301726
TAFGCN
TAF
KGCN 301726Z 3018/3118 23011G20KT P6SM VCTS BKN070CB BKN100
      TEMPO 3020/3023 VRB15G25KT 5SM -TSRA BKN050CB
     FM310200 VRB03KT P6SM SCT070=

USA.gov is the U.S. government's official web portal to all federal, state and local government web resources and services.